Time;durP1;ratioP1;P1;durP2;ratioP2;P2;SDS_P1;SDS_P2;PMS_P1;PMS_P2;Temp;Humidity;BMP_temperature;BMP_pressure;BME280_temperature;BME280_humidity;BME280_pressure;Samples;Min_cycle;Max_cycle;Signal;HPM_P1;HPM_P2
2023/05/26 00:00:09;;;;;;;;;21.50;19.50;;;;;;;;5029543;28;8803;-72
2023/05/26 00:02:37;;;;;;;;;17.00;16.75;;;;;;;;5061582;28;8850;-72
2023/05/26 00:05:06;;;;;;;;;19.00;18.50;;;;;;;;5029948;28;11543;-72
2023/05/26 00:07:31;;;;;;;;;20.50;17.00;;;;;;;;5029331;28;11266;-72
2023/05/26 00:09:56;;;;;;;;;22.50;16.50;;;;;;;;5029623;28;11379;-72
2023/05/26 00:12:22;;;;;;;;;21.25;18.50;;;;;;;;5028427;28;9574;-72
2023/05/26 00:14:48;;;;;;;;;18.25;16.00;;;;;;;;5028426;28;8839;-72
2023/05/26 00:17:13;;;;;;;;;13.50;13.00;;;;;;;;5029299;28;8909;-72
2023/05/26 00:19:38;;;;;;;;;19.75;16.50;;;;;;;;5029339;28;11223;-72
2023/05/26 00:22:04;;;;;;;;;18.75;18.75;;;;;;;;5029344;28;8946;-71
2023/05/26 00:24:29;;;;;;;;;16.50;16.50;;;;;;;;5029253;28;8788;-72
2023/05/26 00:26:55;;;;;;;;;15.75;15.75;;;;;;;;5029352;28;8946;-72
2023/05/26 00:29:20;;;;;;;;;21.75;18.25;;;;;;;;5029106;28;8847;-72
2023/05/26 00:31:45;;;;;;;;;20.50;17.75;;;;;;;;5029171;28;8803;-72
2023/05/26 00:34:13;;;;;;;;;19.50;18.75;;;;;;;;5029092;28;8896;-72
2023/05/26 00:36:39;;;;;;;;;18.25;17.75;;;;;;;;5028996;28;8816;-72
2023/05/26 00:39:04;;;;;;;;;20.25;19.00;;;;;;;;5029007;28;11452;-71
2023/05/26 00:41:32;;;;;;;;;23.25;17.50;;;;;;;;5029117;28;8792;-73
2023/05/26 00:43:57;;;;;;;;;18.75;15.25;;;;;;;;5029062;28;8900;-72
2023/05/26 00:46:23;;;;;;;;;15.75;12.50;;;;;;;;5028906;28;11571;-72
2023/05/26 00:48:48;;;;;;;;;17.00;16.00;;;;;;;;5028858;28;8862;-71
2023/05/26 00:51:13;;;;;;;;;15.25;12.50;;;;;;;;5028917;28;8799;-72
2023/05/26 00:53:42;;;;;;;;;19.50;16.25;;;;;;;;5029060;28;8804;-72
2023/05/26 00:56:09;;;;;;;;;16.00;15.25;;;;;;;;5060967;28;8831;-72
2023/05/26 00:58:34;;;;;;;;;16.25;13.50;;;;;;;;5028777;28;11500;-73
2023/05/26 01:01:00;;;;;;;;;15.25;13.75;;;;;;;;5028951;28;11478;-72
2023/05/26 01:03:26;;;;;;;;;17.50;15.00;;;;;;;;5029364;28;9495;-73
2023/05/26 01:05:53;;;;;;;;;15.50;14.75;;;;;;;;5028923;28;8804;-73
2023/05/26 01:08:18;;;;;;;;;13.50;13.50;;;;;;;;5027871;28;11215;-72
2023/05/26 01:10:44;;;;;;;;;17.25;14.75;;;;;;;;5033393;28;11063;-73
2023/05/26 01:13:12;;;;;;;;;14.75;14.75;;;;;;;;5032884;28;8788;-72
2023/05/26 01:15:50;;;;;;;;;18.75;15.00;;;;;;;;5033025;28;8800;-72
2023/05/26 01:18:20;;;;;;;;;15.00;12.00;;;;;;;;5032840;28;11461;-72
2023/05/26 01:20:48;;;;;;;;;14.50;12.00;;;;;;;;5032558;28;11154;-72
2023/05/26 01:23:33;;;;;;;;;17.50;15.00;;;;;;;;5064443;28;11603;-72
2023/05/26 01:26:16;;;;;;;;;18.25;14.00;;;;;;;;5031088;28;12302;-72
2023/05/26 01:28:43;;;;;;;;;11.75;11.75;;;;;;;;5032436;28;11234;-72
2023/05/26 01:31:08;;;;;;;;;15.50;15.50;;;;;;;;5032476;28;11167;-72
2023/05/26 01:33:35;;;;;;;;;17.00;16.75;;;;;;;;5032469;28;11348;-72
2023/05/26 01:36:00;;;;;;;;;17.75;14.25;;;;;;;;5032126;28;8807;-72
2023/05/26 01:38:26;;;;;;;;;17.00;15.00;;;;;;;;5064293;28;11089;-73
2023/05/26 01:40:53;;;;;;;;;15.75;12.00;;;;;;;;5032405;28;8930;-72
2023/05/26 01:43:23;;;;;;;;;17.25;15.25;;;;;;;;5032356;28;8904;-72
2023/05/26 01:45:52;;;;;;;;;15.75;14.75;;;;;;;;5032242;28;11415;-73
2023/05/26 01:48:18;;;;;;;;;16.75;15.50;;;;;;;;5032205;28;12111;-76
2023/05/26 01:51:09;;;;;;;;;15.00;14.00;;;;;;;;5032398;28;11228;-76
2023/05/26 01:53:37;;;;;;;;;11.75;11.75;;;;;;;;5046295;28;8792;-75
2023/05/26 01:56:03;;;;;;;;;10.50;10.25;;;;;;;;5031924;28;11178;-75
2023/05/26 01:58:29;;;;;;;;;12.50;11.25;;;;;;;;5032030;28;11247;-75
2023/05/26 02:00:56;;;;;;;;;16.50;15.25;;;;;;;;5063502;28;11313;-76
2023/05/26 02:03:22;;;;;;;;;18.00;14.25;;;;;;;;5032006;28;11554;-76
2023/05/26 02:05:47;;;;;;;;;16.00;14.50;;;;;;;;5032398;28;11169;-76
2023/05/26 02:08:12;;;;;;;;;17.00;12.00;;;;;;;;5030397;28;8855;-76
2023/05/26 02:10:41;;;;;;;;;14.75;14.00;;;;;;;;5031896;28;8893;-76
2023/05/26 02:13:06;;;;;;;;;14.75;13.00;;;;;;;;5031972;28;8827;-76
2023/05/26 02:15:32;;;;;;;;;14.50;12.50;;;;;;;;5031729;28;11465;-76
2023/05/26 02:17:57;;;;;;;;;14.75;12.50;;;;;;;;5031783;28;9662;-76
2023/05/26 02:20:26;;;;;;;;;16.50;13.25;;;;;;;;5063415;28;8862;-76
2023/05/26 02:22:51;;;;;;;;;19.50;14.50;;;;;;;;5031416;28;8800;-76
2023/05/26 02:25:16;;;;;;;;;16.00;14.00;;;;;;;;5063425;28;11516;-76
2023/05/26 02:27:42;;;;;;;;;16.75;15.75;;;;;;;;5031413;28;8946;-75
2023/05/26 02:30:08;;;;;;;;;10.00;10.00;;;;;;;;5031578;28;8851;-76
2023/05/26 02:32:34;;;;;;;;;14.50;13.75;;;;;;;;5031565;28;8796;-75
2023/05/26 02:35:05;;;;;;;;;18.75;15.50;;;;;;;;5031432;28;8799;-76
2023/05/26 02:37:31;;;;;;;;;17.00;13.50;;;;;;;;5031220;28;11676;-75
2023/05/26 02:39:56;;;;;;;;;16.50;15.25;;;;;;;;5031362;28;11563;-76
2023/05/26 02:42:22;;;;;;;;;18.00;16.25;;;;;;;;5031396;28;8799;-76
2023/05/26 02:44:47;;;;;;;;;15.75;14.50;;;;;;;;5063488;28;8882;-77
2023/05/26 02:47:12;;;;;;;;;14.00;11.75;;;;;;;;5037402;28;8796;-75
2023/05/26 02:49:38;;;;;;;;;14.75;13.00;;;;;;;;5031585;28;8800;-76
2023/05/26 02:52:03;;;;;;;;;15.50;14.50;;;;;;;;5063105;28;8836;-76
2023/05/26 02:54:28;;;;;;;;;18.75;14.50;;;;;;;;5063073;28;8827;-76
2023/05/26 02:56:54;;;;;;;;;15.00;13.50;;;;;;;;5063099;28;8827;-76
2023/05/26 02:59:19;;;;;;;;;12.25;11.25;;;;;;;;5029836;28;8816;-76
2023/05/26 03:01:45;;;;;;;;;14.50;13.00;;;;;;;;5031169;28;8881;-76
2023/05/26 03:04:10;;;;;;;;;14.75;14.75;;;;;;;;5044277;23;8945;-76
2023/05/26 03:06:36;;;;;;;;;13.75;12.50;;;;;;;;5045837;28;9617;-77
2023/05/26 03:09:01;;;;;;;;;19.25;15.25;;;;;;;;5052160;28;8848;-78
2023/05/26 03:11:27;;;;;;;;;15.00;14.25;;;;;;;;5052152;28;8797;-78
2023/05/26 03:13:52;;;;;;;;;16.00;16.00;;;;;;;;5052065;28;8825;-78
2023/05/26 03:16:19;;;;;;;;;20.75;15.75;;;;;;;;5051952;28;8785;-78
2023/05/26 03:18:44;;;;;;;;;14.75;14.00;;;;;;;;5052065;28;8831;-77
2023/05/26 03:21:10;;;;;;;;;17.75;14.75;;;;;;;;5050344;28;11475;-77
2023/05/26 03:23:35;;;;;;;;;17.75;13.50;;;;;;;;5052011;28;8781;-78
2023/05/26 03:26:00;;;;;;;;;15.50;13.75;;;;;;;;5051942;28;8894;-77
2023/05/26 03:28:26;;;;;;;;;12.25;12.25;;;;;;;;5050491;28;9649;-77
2023/05/26 03:30:52;;;;;;;;;19.00;15.00;;;;;;;;5050575;28;8813;-77
2023/05/26 03:33:17;;;;;;;;;14.00;14.00;;;;;;;;5051026;28;9578;-78
2023/05/26 03:35:42;;;;;;;;;16.50;14.00;;;;;;;;5051650;28;8821;-80
2023/05/26 03:38:08;;;;;;;;;15.00;13.00;;;;;;;;5051826;28;8836;-79
2023/05/26 03:40:33;;;;;;;;;18.00;12.75;;;;;;;;5051685;28;8904;-79
2023/05/26 03:42:58;;;;;;;;;14.50;13.25;;;;;;;;5051501;28;8820;-79
2023/05/26 03:45:24;;;;;;;;;18.00;14.50;;;;;;;;5051445;28;9508;-78
2023/05/26 03:47:49;;;;;;;;;16.50;13.50;;;;;;;;5050109;28;8891;-78
2023/05/26 03:50:15;;;;;;;;;17.75;15.00;;;;;;;;5051450;28;8815;-78
2023/05/26 03:52:40;;;;;;;;;14.75;11.75;;;;;;;;5051145;28;8912;-78
2023/05/26 03:55:09;;;;;;;;;16.75;16.00;;;;;;;;5051493;28;8785;-78
2023/05/26 03:57:34;;;;;;;;;18.50;16.25;;;;;;;;5051232;28;8789;-77
2023/05/26 04:00:00;;;;;;;;;18.50;18.50;;;;;;;;5051079;28;11473;-77
2023/05/26 04:02:25;;;;;;;;;17.25;17.00;;;;;;;;5051153;28;8762;-78
2023/05/26 04:04:50;;;;;;;;;21.75;16.00;;;;;;;;5050078;28;8833;-77
2023/05/26 04:07:16;;;;;;;;;17.50;15.00;;;;;;;;5051125;28;8808;-77
2023/05/26 04:09:41;;;;;;;;;24.50;20.75;;;;;;;;5034375;28;8882;-77
2023/05/26 04:12:06;;;;;;;;;17.25;16.25;;;;;;;;5030975;28;8819;-77
2023/05/26 04:14:32;;;;;;;;;20.25;17.75;;;;;;;;5029377;28;8901;-78
2023/05/26 04:16:57;;;;;;;;;17.00;17.00;;;;;;;;5030992;28;9534;-78
2023/05/26 04:19:22;;;;;;;;;17.75;16.50;;;;;;;;5012200;28;8818;-77
2023/05/26 04:21:48;;;;;;;;;19.00;17.00;;;;;;;;5009841;28;8826;-77
2023/05/26 04:24:13;;;;;;;;;30.25;23.25;;;;;;;;5011448;28;8798;-77
2023/05/26 04:26:38;;;;;;;;;25.25;23.00;;;;;;;;5016308;28;8834;-76
2023/05/26 04:29:03;;;;;;;;;17.00;16.00;;;;;;;;5011450;28;8822;-77
2023/05/26 04:31:29;;;;;;;;;18.00;17.75;;;;;;;;5013622;28;8895;-81
2023/05/26 04:33:56;;;;;;;;;24.25;21.25;;;;;;;;5028326;28;8808;-77
2023/05/26 04:36:23;;;;;;;;;20.00;18.00;;;;;;;;5043499;28;9552;-80
2023/05/26 04:38:48;;;;;;;;;20.50;18.75;;;;;;;;5050601;28;11564;-77
2023/05/26 04:41:13;;;;;;;;;24.75;23.50;;;;;;;;5050347;28;11460;-79
2023/05/26 04:43:40;;;;;;;;;23.50;21.75;;;;;;;;5049082;28;8816;-77
2023/05/26 04:46:06;;;;;;;;;18.25;18.25;;;;;;;;5050439;28;8785;-80
2023/05/26 04:48:31;;;;;;;;;21.75;20.00;;;;;;;;5011992;28;11529;-89
2023/05/26 04:50:56;;;;;;;;;19.50;16.75;;;;;;;;5010969;28;8817;-77
2023/05/26 04:53:22;;;;;;;;;19.00;18.50;;;;;;;;5010730;28;8791;-86
2023/05/26 04:55:47;;;;;;;;;20.50;17.50;;;;;;;;5010620;28;8790;-81
2023/05/26 04:58:13;;;;;;;;;21.00;18.75;;;;;;;;5009553;28;8965;-81
2023/05/26 05:00:38;;;;;;;;;22.25;22.25;;;;;;;;5009367;28;8903;-82
2023/05/26 05:03:03;;;;;;;;;16.25;16.00;;;;;;;;5010576;28;8818;-74
2023/05/26 05:05:29;;;;;;;;;21.75;19.50;;;;;;;;5022268;28;8841;-73
2023/05/26 05:07:54;;;;;;;;;18.75;18.00;;;;;;;;5050174;28;8837;-73
2023/05/26 05:10:20;;;;;;;;;12.75;10.75;;;;;;;;5029869;28;9046;-73
2023/05/26 05:12:46;;;;;;;;;21.75;17.50;;;;;;;;5010426;28;8833;-71
2023/05/26 05:15:11;;;;;;;;;21.00;20.00;;;;;;;;5010438;28;8798;-72
2023/05/26 05:17:37;;;;;;;;;25.50;17.25;;;;;;;;5010180;28;11598;-82
2023/05/26 05:20:02;;;;;;;;;0.75;0.75;;;;;;;;5015926;28;9559;-80
2023/05/26 05:22:27;;;;;;;;;19.25;18.00;;;;;;;;5028800;28;8827;-78
2023/05/26 05:24:53;;;;;;;;;23.00;21.50;;;;;;;;5030170;28;8812;-78
2023/05/26 05:27:21;;;;;;;;;18.75;17.75;;;;;;;;5031438;28;8804;-76
2023/05/26 05:29:46;;;;;;;;;16.00;14.75;;;;;;;;5030983;28;8935;-79
2023/05/26 05:32:12;;;;;;;;;23.50;20.25;;;;;;;;5028945;28;11482;-75
2023/05/26 05:34:37;;;;;;;;;19.00;16.00;;;;;;;;5030159;28;8804;-77
2023/05/26 05:37:02;;;;;;;;;24.75;19.75;;;;;;;;5048669;28;8837;-76
2023/05/26 05:39:28;;;;;;;;;23.75;18.75;;;;;;;;5046881;28;8801;-77
2023/05/26 05:41:53;;;;;;;;;22.50;20.50;;;;;;;;5028871;28;8843;-78
2023/05/26 05:44:18;;;;;;;;;19.00;19.00;;;;;;;;5029744;28;8827;-79
2023/05/26 05:46:44;;;;;;;;;20.00;16.50;;;;;;;;5024751;28;8985;-82
2023/05/26 05:49:09;;;;;;;;;24.75;20.00;;;;;;;;5029733;28;8868;-79
2023/05/26 05:51:35;;;;;;;;;24.25;19.50;;;;;;;;5028474;28;8823;-82
2023/05/26 05:54:00;;;;;;;;;18.00;16.75;;;;;;;;5029962;28;8803;-87
2023/05/26 05:56:26;;;;;;;;;22.75;20.00;;;;;;;;5032252;28;8792;-84
2023/05/26 05:58:51;;;;;;;;;18.25;16.00;;;;;;;;5027253;28;8812;-73
2023/05/26 06:01:17;;;;;;;;;17.25;16.75;;;;;;;;5032463;28;8808;-77
2023/05/26 06:03:42;;;;;;;;;20.50;20.00;;;;;;;;5032164;28;8819;-76
2023/05/26 06:06:07;;;;;;;;;18.75;17.75;;;;;;;;5033304;28;8823;-72
2023/05/26 06:08:33;;;;;;;;;19.25;19.00;;;;;;;;5033239;28;9608;-72
2023/05/26 06:10:58;;;;;;;;;18.00;17.50;;;;;;;;5031820;28;8850;-72
2023/05/26 06:13:23;;;;;;;;;22.25;20.75;;;;;;;;5033397;28;8802;-74
2023/05/26 06:15:49;;;;;;;;;20.75;18.50;;;;;;;;5029968;28;8835;-75
2023/05/26 06:18:14;;;;;;;;;18.25;16.75;;;;;;;;5025435;28;8823;-73
2023/05/26 06:20:39;;;;;;;;;21.75;18.50;;;;;;;;5032992;28;8788;-73
2023/05/26 06:23:05;;;;;;;;;18.50;16.00;;;;;;;;5032535;28;8905;-72
2023/05/26 06:25:30;;;;;;;;;20.75;19.00;;;;;;;;5029645;28;8820;-73
2023/05/26 06:27:55;;;;;;;;;22.75;20.00;;;;;;;;5016577;28;8885;-75
2023/05/26 06:30:21;;;;;;;;;22.00;21.00;;;;;;;;5024277;28;8854;-76
2023/05/26 06:32:46;;;;;;;;;21.75;20.75;;;;;;;;5032045;28;8970;-76
2023/05/26 06:35:12;;;;;;;;;24.75;23.75;;;;;;;;5046954;28;8811;-74
2023/05/26 06:37:38;;;;;;;;;21.00;16.75;;;;;;;;5032233;28;8957;-73
2023/05/26 06:40:03;;;;;;;;;23.00;21.25;;;;;;;;5032014;28;11151;-73
2023/05/26 06:42:28;;;;;;;;;24.75;20.00;;;;;;;;5031891;28;8823;-75
2023/05/26 06:44:54;;;;;;;;;20.75;20.00;;;;;;;;5032185;28;8899;-74
2023/05/26 06:47:23;;;;;;;;;23.00;22.00;;;;;;;;5031808;28;8830;-76
2023/05/26 06:49:48;;;;;;;;;23.00;22.75;;;;;;;;5030151;28;8914;-74
2023/05/26 06:52:14;;;;;;;;;22.50;21.00;;;;;;;;5031812;28;11091;-74
2023/05/26 06:54:39;;;;;;;;;23.75;22.50;;;;;;;;5030703;28;8827;-74
2023/05/26 06:57:05;;;;;;;;;22.50;22.00;;;;;;;;5030409;28;9565;-73
2023/05/26 06:59:30;;;;;;;;;21.75;20.00;;;;;;;;5031741;28;8842;-73
2023/05/26 07:01:55;;;;;;;;;22.50;20.75;;;;;;;;5028348;28;8934;-73
2023/05/26 07:04:21;;;;;;;;;22.75;21.50;;;;;;;;5030135;28;8807;-75
2023/05/26 07:06:46;;;;;;;;;22.75;22.00;;;;;;;;5031741;28;8795;-71
2023/05/26 07:09:11;;;;;;;;;24.50;23.25;;;;;;;;5031000;28;8950;-74
2023/05/26 07:11:37;;;;;;;;;20.50;20.00;;;;;;;;5031225;28;8796;-73
2023/05/26 07:14:02;;;;;;;;;23.75;21.00;;;;;;;;5017147;28;8844;-74
2023/05/26 07:16:27;;;;;;;;;19.25;16.75;;;;;;;;5030161;28;8815;-74
2023/05/26 07:18:52;;;;;;;;;25.00;22.50;;;;;;;;5030800;28;8851;-74
2023/05/26 07:21:19;;;;;;;;;21.25;19.50;;;;;;;;5030293;28;8834;-75
2023/05/26 07:23:44;;;;;;;;;16.50;16.50;;;;;;;;5030354;28;8812;-74
2023/05/26 07:26:10;;;;;;;;;19.75;19.75;;;;;;;;5028643;28;10173;-74
2023/05/26 07:28:35;;;;;;;;;24.75;20.25;;;;;;;;5023474;28;8853;-74
2023/05/26 07:31:01;;;;;;;;;18.25;17.25;;;;;;;;5029354;28;8967;-73
2023/05/26 07:33:26;;;;;;;;;19.75;18.00;;;;;;;;5030218;28;8792;-72
2023/05/26 07:35:51;;;;;;;;;21.50;18.00;;;;;;;;5031147;28;8788;-73
2023/05/26 07:38:17;;;;;;;;;23.00;22.00;;;;;;;;5030238;28;8815;-74
2023/05/26 07:40:42;;;;;;;;;21.00;20.50;;;;;;;;5011054;28;8913;-74
2023/05/26 07:43:10;;;;;;;;;18.50;17.75;;;;;;;;5030545;28;8956;-73
2023/05/26 07:45:35;;;;;;;;;20.00;18.75;;;;;;;;5029997;28;8792;-74
2023/05/26 07:48:00;;;;;;;;;20.25;20.25;;;;;;;;5028443;28;9476;-74
2023/05/26 07:52:50;;;;;;;;;21.00;19.00;;;;;;;;5104380;27;13444;-72
2023/05/26 07:55:15;;;;;;;;;15.67;14.67;;;;;;;;5060552;27;11098;-73
2023/05/26 07:57:41;;;;;;;;;15.33;15.33;;;;;;;;5067192;28;8818;-72
2023/05/26 08:00:06;;;;;;;;;18.00;17.00;;;;;;;;5067531;28;8783;-73
2023/05/26 08:02:32;;;;;;;;;15.33;15.33;;;;;;;;5066748;28;9538;-72
2023/05/26 08:04:57;;;;;;;;;17.00;16.00;;;;;;;;5067547;28;8824;-72
2023/05/26 08:07:23;;;;;;;;;14.00;13.67;;;;;;;;5066236;28;8841;-73
2023/05/26 08:09:48;;;;;;;;;16.00;15.33;;;;;;;;5067179;28;8807;-72
2023/05/26 08:12:14;;;;;;;;;16.67;16.33;;;;;;;;5064945;28;8981;-73
2023/05/26 08:14:39;;;;;;;;;16.00;16.00;;;;;;;;5065233;28;8895;-72
2023/05/26 08:17:05;;;;;;;;;16.33;16.00;;;;;;;;5056766;28;9528;-72
2023/05/26 08:19:30;;;;;;;;;10.00;10.00;;;;;;;;5049614;28;8905;-70
2023/05/26 08:21:55;;;;;;;;;14.67;14.67;;;;;;;;5054520;28;8813;-73
2023/05/26 08:24:23;;;;;;;;;12.67;11.00;;;;;;;;5046951;28;8908;-72
2023/05/26 08:26:49;;;;;;;;;15.00;14.25;;;;;;;;5046669;28;8793;-72
2023/05/26 08:29:14;;;;;;;;;19.00;14.00;;;;;;;;5066006;28;8820;-74
2023/05/26 08:31:39;;;;;;;;;12.00;12.00;;;;;;;;5066169;28;11606;-73
2023/05/26 08:34:06;;;;;;;;;14.33;13.00;;;;;;;;5066766;28;8914;-72
2023/05/26 08:36:31;;;;;;;;;15.00;13.25;;;;;;;;5066907;28;9162;-72
2023/05/26 08:38:56;;;;;;;;;17.00;15.00;;;;;;;;5066642;28;8802;-71
2023/05/26 08:41:23;;;;;;;;;16.67;15.00;;;;;;;;5065741;28;8826;-72
2023/05/26 08:43:55;;;;;;;;;10.50;10.50;;;;;;;;5066498;28;8902;-75
2023/05/26 08:46:21;;;;;;;;;10.50;9.50;;;;;;;;5066749;28;8828;-75
2023/05/26 08:48:48;;;;;;;;;13.25;13.00;;;;;;;;5066484;28;8787;-77
2023/05/26 08:51:13;;;;;;;;;13.25;13.00;;;;;;;;5065902;28;8842;-76
2023/05/26 08:53:39;;;;;;;;;14.33;13.67;;;;;;;;5066365;28;8790;-79
2023/05/26 08:56:06;;;;;;;;;14.50;14.25;;;;;;;;5065998;28;8787;-79
2023/05/26 08:58:33;;;;;;;;;14.50;13.25;;;;;;;;5065745;28;8861;-82
2023/05/26 09:00:59;;;;;;;;;17.25;14.25;;;;;;;;5064522;28;8845;-79
2023/05/26 09:03:25;;;;;;;;;16.00;15.25;;;;;;;;5056948;28;8791;-79
2023/05/26 09:05:50;;;;;;;;;14.00;14.00;;;;;;;;5052983;28;8827;-73
2023/05/26 09:08:15;;;;;;;;;13.00;13.00;;;;;;;;5052972;28;8837;-74
2023/05/26 09:10:41;;;;;;;;;13.33;13.00;;;;;;;;5052417;28;8860;-74
2023/05/26 09:13:07;;;;;;;;;16.00;13.00;;;;;;;;5052077;28;8876;-74
2023/05/26 09:15:32;;;;;;;;;15.25;15.00;;;;;;;;5051628;28;9581;-75
2023/05/26 09:18:02;;;;;;;;;11.67;11.67;;;;;;;;5052275;28;8880;-74
2023/05/26 09:20:28;;;;;;;;;12.50;12.25;;;;;;;;5052612;28;9752;-73
2023/05/26 09:22:55;;;;;;;;;13.67;12.33;;;;;;;;5052172;28;8933;-72
2023/05/26 09:25:23;;;;;;;;;12.75;11.25;;;;;;;;5052401;28;8950;-72
2023/05/26 09:27:48;;;;;;;;;14.50;14.00;;;;;;;;5052472;28;8799;-77
2023/05/26 09:30:13;;;;;;;;;10.00;9.67;;;;;;;;5052266;28;8802;-78
2023/05/26 09:32:39;;;;;;;;;10.00;8.00;;;;;;;;5058703;28;8815;-75
2023/05/26 09:35:05;;;;;;;;;12.00;11.67;;;;;;;;5071049;28;8850;-75
2023/05/26 09:37:31;;;;;;;;;9.00;9.00;;;;;;;;5071895;28;8804;-77
2023/05/26 09:40:10;;;;;;;;;10.00;10.00;;;;;;;;5051508;28;8810;-76
2023/05/26 09:42:36;;;;;;;;;8.25;8.00;;;;;;;;5045780;28;8817;-82
2023/05/26 09:45:01;;;;;;;;;12.75;12.25;;;;;;;;5040274;28;8801;-81
2023/05/26 09:47:30;;;;;;;;;12.00;10.67;;;;;;;;5032062;28;8832;-80
2023/05/26 09:50:01;;;;;;;;;9.00;9.00;;;;;;;;5032628;28;8840;-82
2023/05/26 09:52:26;;;;;;;;;9.75;8.50;;;;;;;;5064322;28;8964;-82
2023/05/26 09:54:51;;;;;;;;;10.00;10.00;;;;;;;;5032003;28;8895;-82
2023/05/26 09:57:17;;;;;;;;;10.33;9.67;;;;;;;;5034290;28;8807;-82
2023/05/26 09:59:44;;;;;;;;;10.00;10.00;;;;;;;;5052014;28;8876;-82
2023/05/26 10:02:16;;;;;;;;;9.25;9.25;;;;;;;;5050744;28;8818;-80
2023/05/26 10:04:42;;;;;;;;;10.75;10.75;;;;;;;;5050756;28;8802;-87
2023/05/26 10:07:08;;;;;;;;;7.75;7.75;;;;;;;;5051906;28;9544;-78
2023/05/26 10:09:35;;;;;;;;;15.00;15.00;;;;;;;;5050116;28;8825;-81
2023/05/26 10:12:01;;;;;;;;;9.00;9.00;;;;;;;;5051785;28;8815;-75
2023/05/26 10:14:26;;;;;;;;;8.00;8.00;;;;;;;;5050238;28;8838;-77
2023/05/26 10:16:52;;;;;;;;;10.00;9.00;;;;;;;;5049965;28;11438;-83
2023/05/26 10:19:17;;;;;;;;;10.67;9.00;;;;;;;;5051678;28;8913;-77
2023/05/26 10:21:46;;;;;;;;;9.67;8.00;;;;;;;;5051526;28;8819;-74
2023/05/26 10:24:16;;;;;;;;;9.50;8.50;;;;;;;;5051241;28;8830;-75
2023/05/26 10:26:56;;;;;;;;;10.25;10.25;;;;;;;;5047843;28;8907;-74
2023/05/26 10:29:29;;;;;;;;;9.75;9.75;;;;;;;;5049301;28;9004;-71
2023/05/26 10:31:54;;;;;;;;;10.00;8.00;;;;;;;;5050608;28;8844;-73
2023/05/26 10:34:52;;;;;;;;;11.00;9.00;;;;;;;;5051827;28;8894;-74
2023/05/26 10:37:17;;;;;;;;;12.25;11.75;;;;;;;;5028697;28;8800;-72
2023/05/26 10:39:43;;;;;;;;;8.67;8.00;;;;;;;;5028805;28;8935;-73
2023/05/26 10:42:15;;;;;;;;;7.67;7.00;;;;;;;;5012556;28;8808;-81
2023/05/26 10:44:41;;;;;;;;;10.25;9.50;;;;;;;;5012339;28;8828;-82
2023/05/26 10:47:06;;;;;;;;;8.75;8.50;;;;;;;;5028161;28;8804;-74
2023/05/26 10:49:35;;;;;;;;;8.67;8.00;;;;;;;;5012239;28;8830;-77
2023/05/26 10:52:08;;;;;;;;;7.75;7.00;;;;;;;;5026406;28;8852;-74
2023/05/26 10:54:34;;;;;;;;;9.00;8.25;;;;;;;;5025774;28;8914;-73
2023/05/26 10:56:59;;;;;;;;;6.00;5.33;;;;;;;;5028407;28;8915;-72
2023/05/26 10:59:35;;;;;;;;;7.33;7.33;;;;;;;;5028360;28;8928;-73
2023/05/26 11:02:02;;;;;;;;;8.75;8.75;;;;;;;;5028864;28;8878;-73
2023/05/26 11:04:39;;;;;;;;;9.50;9.00;;;;;;;;5027175;28;8938;-73
2023/05/26 11:07:13;;;;;;;;;9.50;8.00;;;;;;;;5028046;28;9674;-72
2023/05/26 11:09:53;;;;;;;;;5.00;5.00;;;;;;;;5028023;28;8805;-73
2023/05/26 11:12:19;;;;;;;;;9.00;9.00;;;;;;;;5019762;28;8830;-74
2023/05/26 11:14:45;;;;;;;;;6.00;6.00;;;;;;;;5050273;28;8825;-71
2023/05/26 11:17:12;;;;;;;;;3.33;2.33;;;;;;;;5049533;28;8803;-71
2023/05/26 11:19:38;;;;;;;;;5.25;5.25;;;;;;;;5042553;28;8829;-71
2023/05/26 11:22:04;;;;;;;;;7.00;7.00;;;;;;;;5029174;28;8960;-71
2023/05/26 11:24:30;;;;;;;;;5.00;5.00;;;;;;;;5029259;28;9214;-71
2023/05/26 11:26:55;;;;;;;;;6.00;5.33;;;;;;;;5027810;28;8809;-70
2023/05/26 11:29:23;;;;;;;;;5.00;5.00;;;;;;;;5048286;28;8802;-68
2023/05/26 11:31:49;;;;;;;;;7.25;6.00;;;;;;;;5048108;28;8838;-68
2023/05/26 11:34:15;;;;;;;;;7.00;5.00;;;;;;;;5048330;28;8844;-71
2023/05/26 11:36:40;;;;;;;;;4.00;4.00;;;;;;;;5047713;28;8807;-68
2023/05/26 11:39:06;;;;;;;;;5.33;5.00;;;;;;;;5048702;28;8802;-71
2023/05/26 11:41:31;;;;;;;;;4.33;4.33;;;;;;;;5050045;28;8838;-69
2023/05/26 11:43:57;;;;;;;;;5.00;5.00;;;;;;;;5048129;28;8925;-72
2023/05/26 11:46:22;;;;;;;;;9.00;8.00;;;;;;;;5065375;28;8798;-74
2023/05/26 11:48:48;;;;;;;;;6.00;5.67;;;;;;;;5050028;28;8807;-68
2023/05/26 11:51:14;;;;;;;;;4.00;4.00;;;;;;;;5043681;28;8843;-73
2023/05/26 11:53:42;;;;;;;;;6.00;6.00;;;;;;;;5031775;28;8912;-74
2023/05/26 11:56:08;;;;;;;;;7.25;5.50;;;;;;;;5026747;28;8805;-74
2023/05/26 11:58:35;;;;;;;;;7.00;5.67;;;;;;;;5042573;28;8818;-74
2023/05/26 12:01:01;;;;;;;;;7.00;6.00;;;;;;;;5049889;28;8806;-71
2023/05/26 12:03:26;;;;;;;;;6.67;6.67;;;;;;;;5050206;28;8794;-73
2023/05/26 12:05:51;;;;;;;;;6.67;6.00;;;;;;;;5048411;28;8857;-72
2023/05/26 12:08:17;;;;;;;;;7.33;6.00;;;;;;;;5048396;28;8810;-72
2023/05/26 12:10:42;;;;;;;;;5.00;5.00;;;;;;;;5048773;28;8791;-73
2023/05/26 12:13:08;;;;;;;;;5.33;5.33;;;;;;;;5048677;28;8795;-72
2023/05/26 12:15:33;;;;;;;;;6.00;6.00;;;;;;;;5049873;28;8795;-73
2023/05/26 12:18:01;;;;;;;;;5.67;5.67;;;;;;;;5049079;28;8779;-71
2023/05/26 12:20:27;;;;;;;;;6.00;5.00;;;;;;;;5049932;28;8807;-70
2023/05/26 12:23:01;;;;;;;;;5.33;5.00;;;;;;;;5049588;28;9505;-71
2023/05/26 12:25:27;;;;;;;;;5.00;5.00;;;;;;;;5050011;28;9493;-74
2023/05/26 12:27:52;;;;;;;;;6.25;6.00;;;;;;;;5049067;28;8803;-72
2023/05/26 12:30:21;;;;;;;;;7.67;7.00;;;;;;;;5049665;28;8829;-73
2023/05/26 12:32:48;;;;;;;;;5.75;5.75;;;;;;;;5048215;28;8858;-78
2023/05/26 12:35:13;;;;;;;;;7.50;7.00;;;;;;;;5049285;28;8787;-79
2023/05/26 12:37:39;;;;;;;;;8.00;5.67;;;;;;;;5049736;28;8815;-73
2023/05/26 12:40:07;;;;;;;;;6.00;6.00;;;;;;;;5053443;28;8889;-72
2023/05/26 12:42:33;;;;;;;;;8.00;7.00;;;;;;;;5052105;28;9573;-72
2023/05/26 12:44:58;;;;;;;;;7.33;6.00;;;;;;;;5053365;28;8791;-75
2023/05/26 12:47:23;;;;;;;;;7.00;5.67;;;;;;;;5053047;28;12174;-75
2023/05/26 12:49:48;;;;;;;;;5.00;4.00;;;;;;;;5053385;28;8921;-77
2023/05/26 12:52:14;;;;;;;;;7.33;6.00;;;;;;;;5052573;28;8842;-77
2023/05/26 12:54:39;;;;;;;;;7.67;6.33;;;;;;;;5052807;28;9533;-75
2023/05/26 12:57:04;;;;;;;;;9.33;6.00;;;;;;;;5052746;28;8794;-81
2023/05/26 12:59:30;;;;;;;;;7.00;7.00;;;;;;;;5050397;28;8838;-72
2023/05/26 13:01:56;;;;;;;;;8.33;7.00;;;;;;;;5050996;28;8944;-81
2023/05/26 13:04:21;;;;;;;;;6.50;6.00;;;;;;;;5052968;28;8834;-79
2023/05/26 13:06:53;;;;;;;;;5.00;5.00;;;;;;;;5052589;28;8937;-79
2023/05/26 13:09:18;;;;;;;;;5.25;5.00;;;;;;;;5053050;28;8807;-77
2023/05/26 13:11:44;;;;;;;;;5.00;4.33;;;;;;;;5054686;28;8842;-77
2023/05/26 13:14:12;;;;;;;;;4.00;4.00;;;;;;;;5072675;28;9530;-77
2023/05/26 13:16:38;;;;;;;;;5.25;5.00;;;;;;;;5072453;28;8913;-77
2023/05/26 13:19:04;;;;;;;;;3.33;3.33;;;;;;;;5072729;28;8797;-78
2023/05/26 13:21:29;;;;;;;;;4.00;4.00;;;;;;;;5069377;28;8923;-76
2023/05/26 13:23:55;;;;;;;;;6.67;5.00;;;;;;;;5072421;28;11363;-78
2023/05/26 13:26:21;;;;;;;;;7.50;6.00;;;;;;;;5072436;28;9495;-79
2023/05/26 13:28:47;;;;;;;;;7.00;5.00;;;;;;;;5056532;28;8825;-78
2023/05/26 13:31:12;;;;;;;;;4.33;3.33;;;;;;;;5052196;28;8928;-79
2023/05/26 13:33:37;;;;;;;;;7.00;6.00;;;;;;;;5051501;28;8806;-78
2023/05/26 13:36:03;;;;;;;;;4.67;4.67;;;;;;;;5052197;28;8819;-78
2023/05/26 13:38:28;;;;;;;;;5.00;5.00;;;;;;;;5050675;28;9738;-77
2023/05/26 13:40:55;;;;;;;;;7.33;6.00;;;;;;;;5051044;28;8799;-77
2023/05/26 13:43:22;;;;;;;;;5.75;5.75;;;;;;;;5050862;28;8901;-77
2023/05/26 13:45:48;;;;;;;;;5.50;4.25;;;;;;;;5052106;28;8787;-78
2023/05/26 13:48:13;;;;;;;;;6.00;6.00;;;;;;;;5052342;28;8799;-78
2023/05/26 13:50:38;;;;;;;;;5.33;4.67;;;;;;;;5050170;28;8802;-77
2023/05/26 13:53:03;;;;;;;;;4.33;4.33;;;;;;;;5064766;28;8907;-76
2023/05/26 13:55:29;;;;;;;;;7.00;6.33;;;;;;;;5071999;28;8792;-76
2023/05/26 13:57:55;;;;;;;;;7.00;7.00;;;;;;;;5063343;28;9528;-77
2023/05/26 14:00:20;;;;;;;;;6.00;5.00;;;;;;;;5051908;28;10696;-76
2023/05/26 14:02:47;;;;;;;;;5.00;5.00;;;;;;;;5050424;28;8806;-76
2023/05/26 14:05:14;;;;;;;;;6.00;5.50;;;;;;;;5051892;28;8892;-77
2023/05/26 14:07:39;;;;;;;;;5.00;5.00;;;;;;;;5051459;28;8827;-78
2023/05/26 14:10:05;;;;;;;;;6.00;6.00;;;;;;;;5050343;28;8803;-77
2023/05/26 14:12:30;;;;;;;;;8.67;6.33;;;;;;;;5051735;28;8839;-79
2023/05/26 14:14:56;;;;;;;;;9.00;7.00;;;;;;;;5050259;28;8933;-79
2023/05/26 14:17:21;;;;;;;;;5.00;5.00;;;;;;;;5050925;28;8837;-79
2023/05/26 14:19:47;;;;;;;;;6.00;6.00;;;;;;;;5051598;28;8795;-77
2023/05/26 14:22:13;;;;;;;;;5.25;5.25;;;;;;;;5049989;28;8810;-77
2023/05/26 14:24:38;;;;;;;;;6.67;6.67;;;;;;;;5051148;28;8811;-78
2023/05/26 14:27:04;;;;;;;;;7.00;6.00;;;;;;;;5051311;28;8821;-78
2023/05/26 14:29:29;;;;;;;;;8.33;6.67;;;;;;;;5051323;28;8807;-78
2023/05/26 14:31:54;;;;;;;;;6.00;6.00;;;;;;;;5050815;28;8810;-75